createdAt,value
2018-04-17T00:00:37.978Z,10.20
2018-04-17T00:03:04.285Z,10.20
2018-04-17T00:05:30.574Z,10.10
2018-04-17T00:07:56.893Z,10.10
2018-04-17T00:10:23.190Z,10.10
2018-04-17T00:12:50.178Z,10.00
2018-04-17T00:15:17.809Z,10.00
2018-04-17T00:17:44.049Z,9.90
2018-04-17T00:20:10.334Z,9.90
2018-04-17T00:22:36.606Z,9.90
2018-04-17T00:25:02.912Z,9.90
2018-04-17T00:27:29.162Z,9.80
2018-04-17T00:29:55.454Z,9.80
2018-04-17T00:32:21.713Z,9.80
2018-04-17T00:34:48.022Z,9.70
2018-04-17T00:37:16.152Z,9.70
2018-04-17T00:39:42.410Z,9.60
2018-04-17T00:42:08.674Z,9.60
2018-04-17T00:44:34.928Z,9.60
2018-04-17T00:47:01.966Z,9.50
2018-04-17T00:49:29.053Z,9.50
2018-04-17T00:51:55.370Z,9.50
2018-04-17T00:54:21.661Z,9.50
2018-04-17T00:56:47.994Z,9.40
2018-04-17T00:59:14.238Z,9.40
2018-04-17T01:01:41.642Z,9.30
2018-04-17T01:04:07.913Z,9.30
2018-04-17T01:06:34.198Z,9.30
2018-04-17T01:09:00.425Z,9.30
2018-04-17T01:11:26.714Z,9.30
2018-04-17T01:13:52.978Z,9.20
2018-04-17T01:16:20.001Z,9.20
2018-04-17T01:18:46.382Z,9.20
2018-04-17T01:21:12.660Z,9.20
2018-04-17T01:23:42.541Z,9.20
2018-04-17T01:26:08.822Z,9.10
2018-04-17T01:28:35.134Z,9.10
2018-04-17T01:31:01.385Z,9.10
2018-04-17T01:33:27.752Z,9.10
2018-04-17T01:35:53.981Z,9.00
2018-04-17T01:38:20.390Z,9.00
2018-04-17T01:40:47.082Z,9.00
2018-04-17T01:43:13.345Z,9.00
2018-04-17T01:45:40.966Z,9.00
2018-04-17T01:48:07.240Z,9.00
2018-04-17T01:50:33.841Z,9.00
2018-04-17T01:53:00.153Z,8.90
2018-04-17T01:55:26.412Z,8.90
2018-04-17T01:57:52.686Z,8.80
2018-04-17T02:00:18.925Z,8.80
2018-04-17T02:02:45.922Z,8.90
2018-04-17T02:05:12.192Z,8.90
2018-04-17T02:07:39.210Z,8.80
2018-04-17T02:10:05.470Z,8.80
2018-04-17T02:12:31.786Z,8.80
2018-04-17T02:14:58.809Z,8.80
2018-04-17T02:17:25.070Z,8.70
2018-04-17T02:19:51.302Z,8.70
2018-04-17T02:22:17.710Z,8.60
2018-04-17T02:24:43.993Z,8.60
2018-04-17T02:27:10.994Z,8.60
2018-04-17T02:29:37.253Z,8.60
2018-04-17T02:32:07.890Z,8.50
2018-04-17T02:34:34.253Z,8.50
2018-04-17T02:37:00.497Z,8.50
2018-04-17T02:39:26.852Z,8.50
2018-04-17T02:41:53.238Z,8.40
2018-04-17T02:44:20.271Z,8.40
2018-04-17T02:46:48.081Z,8.40
2018-04-17T02:49:14.343Z,8.40
2018-04-17T02:51:40.604Z,8.40
2018-04-17T02:54:07.742Z,8.30
2018-04-17T02:56:33.969Z,8.30
2018-04-17T02:59:00.287Z,8.20
2018-04-17T03:01:26.514Z,8.20
2018-04-17T03:03:52.777Z,8.30
2018-04-17T03:06:19.882Z,8.20
2018-04-17T03:08:47.456Z,8.20
2018-04-17T03:11:13.768Z,8.20
2018-04-17T03:13:40.030Z,8.20
2018-04-17T03:16:06.358Z,8.20
2018-04-17T03:18:32.649Z,8.10
2018-04-17T03:20:59.209Z,8.10
2018-04-17T03:23:25.447Z,8.20
2018-04-17T03:25:51.797Z,8.20
2018-04-17T03:28:18.001Z,8.20
2018-04-17T03:30:44.307Z,8.20
2018-04-17T03:33:10.580Z,8.10
2018-04-17T03:35:36.841Z,8.10
2018-04-17T03:38:03.101Z,8.10
2018-04-17T03:40:29.385Z,8.10
2018-04-17T03:42:55.641Z,8.10
2018-04-17T03:45:21.974Z,8.10
2018-04-17T03:47:48.210Z,8.10
2018-04-17T03:50:14.507Z,8.00
2018-04-17T03:52:42.201Z,7.90
2018-04-17T03:55:08.590Z,7.90
2018-04-17T03:57:34.853Z,7.80
2018-04-17T04:00:01.229Z,7.80
2018-04-17T04:02:27.465Z,7.90
2018-04-17T04:04:53.749Z,7.80
2018-04-17T04:07:19.998Z,7.80
2018-04-17T04:09:46.426Z,7.70
2018-04-17T04:12:12.662Z,7.70
2018-04-17T04:14:42.040Z,7.70
2018-04-17T04:17:20.339Z,7.70
2018-04-17T04:19:58.833Z,7.70
2018-04-17T04:22:37.180Z,7.70
2018-04-17T04:25:15.521Z,7.60
2018-04-17T04:27:41.781Z,7.60
2018-04-17T04:30:08.111Z,7.60
2018-04-17T04:32:40.493Z,7.60
2018-04-17T04:35:08.067Z,7.60
2018-04-17T04:37:34.335Z,7.70
2018-04-17T04:40:00.581Z,7.70
2018-04-17T04:42:26.847Z,7.70
2018-04-17T04:44:53.097Z,7.70
2018-04-17T04:47:26.997Z,7.70
2018-04-17T04:49:53.253Z,7.70
2018-04-17T04:52:19.517Z,7.70
2018-04-17T04:54:45.754Z,7.70
2018-04-17T04:57:12.233Z,7.70
2018-04-17T04:59:38.478Z,7.80
2018-04-17T05:02:04.882Z,7.80
2018-04-17T05:04:31.136Z,7.90
2018-04-17T05:06:57.447Z,7.90
2018-04-17T05:09:23.710Z,8.00
2018-04-17T05:11:50.095Z,8.00
2018-04-17T05:14:17.121Z,8.20
2018-04-17T05:16:44.260Z,8.10
2018-04-17T05:19:16.425Z,8.20
2018-04-17T05:21:42.679Z,8.20
2018-04-17T05:24:08.970Z,8.20
2018-04-17T05:26:35.204Z,8.20
2018-04-17T05:29:01.473Z,8.30
2018-04-17T05:31:27.762Z,8.30
2018-04-17T05:33:54.034Z,8.40
2018-04-17T05:36:20.293Z,8.40
2018-04-17T05:38:46.559Z,8.40
2018-04-17T05:41:12.824Z,8.50
2018-04-17T05:43:39.090Z,8.50
2018-04-17T05:46:05.360Z,8.60
2018-04-17T05:48:31.622Z,8.60
2018-04-17T05:50:57.966Z,8.70
2018-04-17T05:53:24.223Z,8.70
2018-04-17T05:55:50.603Z,8.80
2018-04-17T05:58:16.853Z,8.90
2018-04-17T06:00:43.249Z,8.90
2018-04-17T06:03:09.528Z,9.00
2018-04-17T06:05:36.529Z,9.10
2018-04-17T06:08:02.788Z,9.10
2018-04-17T06:10:34.928Z,9.20
2018-04-17T06:13:01.301Z,9.30
2018-04-17T06:15:27.574Z,9.40
2018-04-17T06:17:53.842Z,9.40
2018-04-17T06:20:20.148Z,9.50
2018-04-17T06:22:46.405Z,9.60
2018-04-17T06:25:12.661Z,9.80
2018-04-17T06:27:38.929Z,9.80
2018-04-17T06:30:05.269Z,9.90
2018-04-17T06:32:32.541Z,10.00
2018-04-17T06:34:58.814Z,10.10
2018-04-17T06:37:25.805Z,10.30
2018-04-17T06:39:52.079Z,10.30
2018-04-17T06:42:18.322Z,10.30
2018-04-17T06:44:45.342Z,10.40
2018-04-17T06:47:11.638Z,10.50
2018-04-17T06:49:37.889Z,10.60
2018-04-17T06:52:04.166Z,10.60
2018-04-17T06:54:30.434Z,10.70
2018-04-17T06:56:56.696Z,10.70
2018-04-17T06:59:22.977Z,10.90
2018-04-17T07:01:49.249Z,10.90
2018-04-17T07:04:15.501Z,11.00
2018-04-17T07:06:48.351Z,11.10
2018-04-17T07:09:14.630Z,11.20
2018-04-17T07:11:40.883Z,11.20
2018-04-17T07:14:07.173Z,11.30
2018-04-17T07:16:33.448Z,11.40
2018-04-17T07:19:01.179Z,11.70
2018-04-17T07:21:27.417Z,11.80
2018-04-17T07:23:53.677Z,12.00
2018-04-17T07:26:20.469Z,12.30
2018-04-17T07:28:46.761Z,12.30
2018-04-17T07:31:13.038Z,12.30
2018-04-17T07:33:39.293Z,12.50
2018-04-17T07:36:05.625Z,12.50
2018-04-17T07:38:31.878Z,12.70
2018-04-17T07:40:59.610Z,12.90
2018-04-17T07:43:25.913Z,12.90
2018-04-17T07:45:52.206Z,12.90
2018-04-17T07:48:31.333Z,13.00
2018-04-17T07:50:57.613Z,13.00
2018-04-17T07:53:23.929Z,13.20
2018-04-17T07:55:50.204Z,13.30
2018-04-17T07:58:16.481Z,13.40
2018-04-17T08:00:42.781Z,13.40
2018-04-17T08:05:54.709Z,13.40
2018-04-17T08:08:21.079Z,13.50
2018-04-17T08:10:47.337Z,13.70
2018-04-17T08:13:14.026Z,13.80
2018-04-17T08:15:40.328Z,14.00
2018-04-17T08:18:06.599Z,14.10
2018-04-17T08:20:32.881Z,14.20
2018-04-17T08:22:59.129Z,14.40
2018-04-17T08:25:25.438Z,14.50
2018-04-17T08:27:51.896Z,14.60
2018-04-17T08:30:18.137Z,14.70
2018-04-17T08:32:46.500Z,14.80
2018-04-17T08:35:12.786Z,15.00
2018-04-17T08:37:39.021Z,15.20
2018-04-17T08:40:05.309Z,15.30
2018-04-17T08:42:32.343Z,15.40
2018-04-17T08:44:58.621Z,15.50
2018-04-17T08:47:40.529Z,15.50
2018-04-17T08:50:06.803Z,15.60
2018-04-17T08:52:33.060Z,15.70
2018-04-17T08:55:00.071Z,16.00
2018-04-17T08:57:26.490Z,15.90
2018-04-17T08:59:52.781Z,16.00
2018-04-17T09:02:19.159Z,16.20
2018-04-17T09:04:45.389Z,16.30
2018-04-17T09:07:11.663Z,16.50
2018-04-17T09:09:37.974Z,16.50
2018-04-17T09:12:04.978Z,16.60
2018-04-17T09:14:31.250Z,16.50
2018-04-17T09:16:57.629Z,16.70
2018-04-17T09:19:23.895Z,16.70
2018-04-17T09:21:50.294Z,16.80
2018-04-17T09:24:16.566Z,16.90
2018-04-17T09:26:43.357Z,17.00
2018-04-17T09:29:09.611Z,17.10
2018-04-17T09:31:35.909Z,17.20
2018-04-17T09:34:03.109Z,17.40
2018-04-17T09:36:29.393Z,17.40
2018-04-17T09:39:04.925Z,17.60
2018-04-17T09:41:31.238Z,17.60
2018-04-17T09:43:57.481Z,17.60
2018-04-17T09:46:24.489Z,17.90
2018-04-17T09:48:50.733Z,17.90
2018-04-17T09:51:17.085Z,18.00
2018-04-17T09:53:43.354Z,18.20
2018-04-17T09:56:10.395Z,18.50
2018-04-17T09:58:37.396Z,18.50
2018-04-17T10:01:03.694Z,18.50
2018-04-17T10:03:29.959Z,18.60
2018-04-17T10:05:56.242Z,18.70
2018-04-17T10:08:23.249Z,19.00
2018-04-17T10:10:49.872Z,18.90
2018-04-17T10:13:16.128Z,19.10
2018-04-17T10:15:42.435Z,19.10
2018-04-17T10:18:08.694Z,19.00
2018-04-17T10:20:34.973Z,19.00
2018-04-17T10:23:01.250Z,19.00
2018-04-17T10:25:27.518Z,19.10
2018-04-17T10:27:53.818Z,19.30
2018-04-17T10:30:20.894Z,19.60
2018-04-17T10:32:47.161Z,19.60
2018-04-17T10:35:14.783Z,19.60
2018-04-17T10:37:41.237Z,19.60
2018-04-17T10:40:07.508Z,19.70
2018-04-17T10:42:33.902Z,19.90
2018-04-17T10:45:00.176Z,19.60
2018-04-17T10:47:26.582Z,19.80
2018-04-17T10:49:52.841Z,20.10
2018-04-17T10:52:19.172Z,20.10
2018-04-17T10:54:45.427Z,19.90
2018-04-17T10:57:11.745Z,20.00
2018-04-17T10:59:38.003Z,20.20
2018-04-17T11:02:05.014Z,20.20
2018-04-17T11:04:31.245Z,20.20
2018-04-17T11:06:57.574Z,20.30
2018-04-17T11:09:23.825Z,20.50
2018-04-17T11:11:50.126Z,20.70
2018-04-17T11:14:16.376Z,20.90
2018-04-17T11:16:42.692Z,21.00
2018-04-17T11:19:09.145Z,21.00
2018-04-17T11:21:35.524Z,21.00
2018-04-17T11:24:01.806Z,21.20
2018-04-17T11:26:28.202Z,21.20
2018-04-17T11:28:54.499Z,21.30
2018-04-17T11:31:20.801Z,21.30
2018-04-17T11:33:47.075Z,21.40
2018-04-17T11:36:13.630Z,21.50
2018-04-17T11:38:39.910Z,21.70
2018-04-17T11:41:06.314Z,21.70
2018-04-17T11:43:32.597Z,21.90
2018-04-17T11:45:58.889Z,22.00
2018-04-17T11:48:26.154Z,22.00
2018-04-17T11:50:52.665Z,22.20
2018-04-17T11:53:18.967Z,22.20
2018-04-17T11:55:46.391Z,21.90
2018-04-17T11:58:12.682Z,21.90
2018-04-17T12:00:39.749Z,22.10
2018-04-17T12:03:06.034Z,22.10
2018-04-17T12:05:33.882Z,22.20
2018-04-17T12:08:00.450Z,22.20
2018-04-17T12:10:26.706Z,22.30
2018-04-17T12:13:07.926Z,22.30
2018-04-17T12:15:36.050Z,22.50
2018-04-17T12:18:02.311Z,22.90
2018-04-17T12:20:28.743Z,22.90
2018-04-17T12:22:55.706Z,23.80
2018-04-17T12:25:22.538Z,23.70
2018-04-17T12:27:49.821Z,23.80
2018-04-17T12:30:16.090Z,23.70
2018-04-17T12:32:42.681Z,23.60
2018-04-17T12:35:08.950Z,23.80
2018-04-17T12:37:35.218Z,24.10
2018-04-17T12:40:01.485Z,23.80
2018-04-17T12:42:27.734Z,24.00
2018-04-17T12:44:54.006Z,24.20
2018-04-17T12:47:22.029Z,24.30
2018-04-17T12:49:48.302Z,24.30
2018-04-17T12:52:15.294Z,24.10
2018-04-17T12:54:47.269Z,24.10
2018-04-17T12:57:13.510Z,24.10
2018-04-17T12:59:40.960Z,24.30
2018-04-17T13:02:07.270Z,24.30
2018-04-17T13:04:33.543Z,24.50
2018-04-17T13:07:00.549Z,25.00
2018-04-17T13:09:26.785Z,25.00
2018-04-17T13:11:53.052Z,25.20
2018-04-17T13:14:19.322Z,25.40
2018-04-17T13:16:45.758Z,25.40
2018-04-17T13:19:12.009Z,25.40
2018-04-17T13:21:38.633Z,25.60
2018-04-17T13:24:04.910Z,25.50
2018-04-17T13:26:31.700Z,25.70
2018-04-17T13:28:57.972Z,26.00
2018-04-17T13:31:24.234Z,26.20
2018-04-17T13:33:50.497Z,26.50
2018-04-17T13:36:16.794Z,26.70
2018-04-17T13:38:43.198Z,26.50
2018-04-17T13:41:09.470Z,26.30
2018-04-17T13:43:35.746Z,26.60
2018-04-17T13:46:02.050Z,27.20
2018-04-17T13:48:28.347Z,27.30
2018-04-17T13:50:54.613Z,27.90
2018-04-17T13:53:21.599Z,29.50
2018-04-17T13:55:49.183Z,29.50
2018-04-17T13:58:16.184Z,31.20
2018-04-17T14:00:42.432Z,33.50
2018-04-17T14:03:08.698Z,35.10
2018-04-17T14:05:34.955Z,35.80
2018-04-17T14:08:01.980Z,37.00
2018-04-17T14:10:29.378Z,36.90
2018-04-17T14:12:55.688Z,36.60
2018-04-17T14:15:22.015Z,36.20
2018-04-17T14:17:48.377Z,37.20
2018-04-17T14:20:14.650Z,37.30
2018-04-17T14:22:40.926Z,37.70
2018-04-17T14:25:07.190Z,35.70
2018-04-17T14:27:33.462Z,35.80
2018-04-17T14:29:59.837Z,36.30
2018-04-17T14:32:26.134Z,35.80
2018-04-17T14:34:52.402Z,35.60
2018-04-17T14:37:18.665Z,36.70
2018-04-17T14:39:44.995Z,36.60
2018-04-17T14:42:11.294Z,36.30
2018-04-17T14:44:37.915Z,35.90
2018-04-17T14:47:04.866Z,36.70
2018-04-17T14:49:31.845Z,37.20
2018-04-17T14:51:59.275Z,37.20
2018-04-17T14:54:25.581Z,38.00
2018-04-17T14:56:51.837Z,38.30
2018-04-17T14:59:18.884Z,38.10
2018-04-17T15:01:45.678Z,38.10
2018-04-17T15:04:12.461Z,38.50
2018-04-17T15:06:38.761Z,39.80
2018-04-17T15:09:08.092Z,38.70
2018-04-17T15:11:34.422Z,38.40
2018-04-17T15:14:00.726Z,38.60
2018-04-17T15:16:26.973Z,38.80
2018-04-17T15:18:53.257Z,38.00
2018-04-17T15:21:20.294Z,37.50
2018-04-17T15:23:46.578Z,37.30
2018-04-17T15:26:12.858Z,36.30
2018-04-17T15:28:42.488Z,37.00
2018-04-17T15:31:08.769Z,37.00
2018-04-17T15:33:35.055Z,37.20
2018-04-17T15:36:01.303Z,37.90
2018-04-17T15:38:27.593Z,37.40
2018-04-17T15:40:54.603Z,37.40
2018-04-17T15:43:20.861Z,37.30
2018-04-17T15:45:47.910Z,36.90
2018-04-17T15:48:14.945Z,36.90
2018-04-17T15:50:41.980Z,35.40
2018-04-17T15:53:08.305Z,35.40
2018-04-17T15:55:34.597Z,35.50
2018-04-17T15:58:00.853Z,35.10
2018-04-17T16:00:27.134Z,34.70
2018-04-17T16:02:54.117Z,33.40
2018-04-17T16:05:20.410Z,33.40
2018-04-17T16:07:47.419Z,33.10
2018-04-17T16:10:13.697Z,33.00
2018-04-17T16:12:40.769Z,32.30
2018-04-17T16:15:07.073Z,32.20
2018-04-17T16:17:34.078Z,32.50
2018-04-17T16:20:00.383Z,32.50
2018-04-17T16:22:26.693Z,33.50
2018-04-17T16:24:52.983Z,34.20
2018-04-17T16:27:19.243Z,35.00
2018-04-17T16:29:45.540Z,34.60
2018-04-17T16:32:11.839Z,34.10
2018-04-17T16:34:38.226Z,33.70
2018-04-17T16:37:04.518Z,33.60
2018-04-17T16:39:30.770Z,33.90
2018-04-17T16:41:57.691Z,33.70
2018-04-17T16:44:23.964Z,33.20
2018-04-17T16:46:50.250Z,33.50
2018-04-17T16:49:16.510Z,33.50
2018-04-17T16:51:42.803Z,33.80
2018-04-17T16:54:10.123Z,33.60
2018-04-17T16:56:38.673Z,33.80
2018-04-17T16:59:06.724Z,33.80
2018-04-17T17:01:33.075Z,33.10
2018-04-17T17:03:59.398Z,33.40
2018-04-17T17:06:25.687Z,33.50
2018-04-17T17:08:51.952Z,33.40
2018-04-17T17:11:18.268Z,33.40
2018-04-17T17:13:45.346Z,32.60
2018-04-17T17:16:32.019Z,32.50
2018-04-17T17:18:59.634Z,32.60
2018-04-17T17:21:26.525Z,32.30
2018-04-17T17:24:07.360Z,31.70
2018-04-17T17:26:35.619Z,31.70
2018-04-17T17:29:09.777Z,31.90
2018-04-17T17:31:36.105Z,31.40
2018-04-17T17:36:53.320Z,29.70
2018-04-17T17:39:26.299Z,27.00
2018-04-17T17:41:58.613Z,26.90
2018-04-17T17:44:30.953Z,26.00
2018-04-17T17:47:03.268Z,25.20
2018-04-17T17:49:35.649Z,24.80
2018-04-17T17:52:08.649Z,24.40
2018-04-17T17:54:42.073Z,24.30
2018-04-17T17:57:14.481Z,24.10
2018-04-17T17:59:47.553Z,23.70
2018-04-17T18:02:19.893Z,23.60
2018-04-17T18:04:46.109Z,23.50
2018-04-17T18:07:12.334Z,23.40
2018-04-17T18:09:38.632Z,23.10
2018-04-17T18:12:04.901Z,22.80
2018-04-17T18:14:31.299Z,22.60
2018-04-17T18:16:59.489Z,22.40
2018-04-17T18:19:25.762Z,22.20
2018-04-17T18:21:52.779Z,21.80
2018-04-17T18:24:19.797Z,21.60
2018-04-17T18:26:46.030Z,21.60
2018-04-17T18:29:12.262Z,21.40
2018-04-17T18:31:38.494Z,21.30
2018-04-17T18:34:04.749Z,21.10
2018-04-17T18:36:30.980Z,21.00
2018-04-17T18:38:57.238Z,20.90
2018-04-17T18:41:24.210Z,20.60
2018-04-17T18:43:50.530Z,20.60
2018-04-17T18:46:17.483Z,20.40
2018-04-17T18:48:44.479Z,20.30
2018-04-17T18:51:10.730Z,20.30
2018-04-17T18:53:36.988Z,20.10
2018-04-17T18:56:03.234Z,20.00
2018-04-17T18:58:30.713Z,19.80
2018-04-17T19:00:56.954Z,19.70
2018-04-17T19:03:23.166Z,19.60
2018-04-17T19:05:49.481Z,19.50
2018-04-17T19:08:15.701Z,19.50
2018-04-17T19:10:42.725Z,19.40
2018-04-17T19:13:15.050Z,19.40
2018-04-17T19:15:41.301Z,19.40
2018-04-17T19:18:07.523Z,19.40
2018-04-17T19:20:33.883Z,19.30
2018-04-17T19:23:00.106Z,19.20
2018-04-17T19:25:27.314Z,19.00
2018-04-17T19:27:53.545Z,18.90
2018-04-17T19:30:19.831Z,18.80
2018-04-17T19:32:50.840Z,18.80
2018-04-17T19:35:17.353Z,18.70
2018-04-17T19:37:43.570Z,18.50
2018-04-17T19:40:09.833Z,18.40
2018-04-17T19:42:36.107Z,18.40
2018-04-17T19:45:02.375Z,18.30
2018-04-17T19:47:28.609Z,18.20
2018-04-17T19:49:54.866Z,18.10
2018-04-17T19:52:21.133Z,18.10
2018-04-17T19:54:47.366Z,17.90
2018-04-17T19:57:13.790Z,17.90
2018-04-17T19:59:40.301Z,17.90
2018-04-17T20:02:06.738Z,17.80
2018-04-17T20:04:33.218Z,17.60
2018-04-17T20:07:00.203Z,17.30
2018-04-17T20:09:26.845Z,17.30
2018-04-17T20:11:53.126Z,17.20
2018-04-17T20:14:19.439Z,17.10
2018-04-17T20:16:45.681Z,17.00
2018-04-17T20:19:12.289Z,16.90
2018-04-17T20:21:39.318Z,16.70
2018-04-17T20:24:05.702Z,16.70
2018-04-17T20:26:31.974Z,16.80
2018-04-17T20:28:58.309Z,16.70
2018-04-17T20:31:24.573Z,16.50
2018-04-17T20:33:50.914Z,16.40
2018-04-17T20:36:17.168Z,16.30
2018-04-17T20:38:43.414Z,16.30
2018-04-17T20:41:09.641Z,16.20
2018-04-17T20:43:35.991Z,16.20
2018-04-17T20:46:02.253Z,16.10
2018-04-17T20:48:29.050Z,16.00
2018-04-17T20:50:55.302Z,16.00
2018-04-17T20:53:21.582Z,16.00
2018-04-17T20:55:47.846Z,16.10
2018-04-17T20:58:14.159Z,16.10
2018-04-17T21:00:41.121Z,16.00
2018-04-17T21:03:07.404Z,16.00
2018-04-17T21:05:33.667Z,16.00
2018-04-17T21:07:59.969Z,15.90
2018-04-17T21:10:26.234Z,15.90
2018-04-17T21:12:53.262Z,16.00
2018-04-17T21:15:19.554Z,16.00
2018-04-17T21:17:45.814Z,16.00
2018-04-17T21:20:12.591Z,16.00
2018-04-17T21:22:38.990Z,15.90
2018-04-17T21:25:05.244Z,15.80
2018-04-17T21:27:31.505Z,15.70
2018-04-17T21:29:57.774Z,15.60
2018-04-17T21:32:24.021Z,15.60
2018-04-17T21:34:50.285Z,15.50
2018-04-17T21:37:16.529Z,15.40
2018-04-17T21:39:42.794Z,15.30
2018-04-17T21:42:09.041Z,15.20
2018-04-17T21:44:35.289Z,15.10
2018-04-17T21:47:01.539Z,15.00
2018-04-17T21:49:27.829Z,14.90
2018-04-17T21:51:54.057Z,14.80
2018-04-17T21:54:20.326Z,14.80
2018-04-17T21:56:46.562Z,14.80
2018-04-17T21:59:12.845Z,14.80
2018-04-17T22:01:39.089Z,14.70
2018-04-17T22:04:05.332Z,14.60
2018-04-17T22:06:31.598Z,14.50
2018-04-17T22:08:58.755Z,14.50
2018-04-17T22:11:25.030Z,14.50
2018-04-17T22:13:51.318Z,14.40
2018-04-17T22:16:17.543Z,14.40
2018-04-17T22:18:43.895Z,14.40
2018-04-17T22:21:10.146Z,14.30
2018-04-17T22:23:36.390Z,14.30
2018-04-17T22:26:02.709Z,14.30
2018-04-17T22:28:28.950Z,14.30
2018-04-17T22:30:55.189Z,14.20
2018-04-17T22:33:21.453Z,14.10
2018-04-17T22:35:48.708Z,14.00
2018-04-17T22:38:15.055Z,14.00
2018-04-17T22:40:41.333Z,13.90
2018-04-17T22:43:07.590Z,13.90
2018-04-17T22:45:33.869Z,13.80
2018-04-17T22:48:00.182Z,13.80
2018-04-17T22:50:26.457Z,13.80
2018-04-17T22:52:53.678Z,13.80
2018-04-17T22:55:19.955Z,13.70
2018-04-17T22:57:46.245Z,13.70
2018-04-17T23:00:12.510Z,13.70
2018-04-17T23:02:38.840Z,13.60
2018-04-17T23:05:05.108Z,13.60
2018-04-17T23:07:32.096Z,13.60
2018-04-17T23:09:58.361Z,13.60
2018-04-17T23:12:24.594Z,13.60
2018-04-17T23:14:50.829Z,13.60
2018-04-17T23:17:17.050Z,13.60
2018-04-17T23:19:43.285Z,13.50
2018-04-17T23:22:09.847Z,13.40
2018-04-17T23:24:36.076Z,13.40
2018-04-17T23:27:02.309Z,13.40
2018-04-17T23:29:28.546Z,13.30
2018-04-17T23:31:54.789Z,13.30
2018-04-17T23:34:21.751Z,13.20
2018-04-17T23:36:48.009Z,13.10
2018-04-17T23:39:14.259Z,13.10
2018-04-17T23:41:40.522Z,13.20
2018-04-17T23:44:06.793Z,13.20
2018-04-17T23:46:33.072Z,13.10
2018-04-17T23:48:59.302Z,13.10
2018-04-17T23:51:25.559Z,13.10
2018-04-17T23:53:52.996Z,13.00
2018-04-17T23:56:19.750Z,13.00
2018-04-17T23:58:46.888Z,12.90
